sensor_id;sensor_type;location;lat;lon;timestamp;P1;durP1;ratioP1;P2;durP2;ratioP2
68976;SDS011;56029;52.568;13.588;2023-05-10T00:00:33;10.63;;;6.33;;
68976;SDS011;56029;52.568;13.588;2023-05-10T00:03:09;11.27;;;6.15;;
68976;SDS011;56029;52.568;13.588;2023-05-10T00:05:35;10.90;;;6.57;;
68976;SDS011;56029;52.568;13.588;2023-05-10T00:08:00;9.57;;;6.10;;
68976;SDS011;56029;52.568;13.588;2023-05-10T00:10:26;11.67;;;6.37;;
68976;SDS011;56029;52.568;13.588;2023-05-10T00:12:51;9.98;;;6.18;;
68976;SDS011;56029;52.568;13.588;2023-05-10T00:15:17;11.90;;;6.57;;
68976;SDS011;56029;52.568;13.588;2023-05-10T00:17:42;11.80;;;6.63;;
68976;SDS011;56029;52.568;13.588;2023-05-10T00:20:08;12.80;;;6.57;;
68976;SDS011;56029;52.568;13.588;2023-05-10T00:22:34;11.35;;;6.78;;
68976;SDS011;56029;52.568;13.588;2023-05-10T00:25:00;11.40;;;6.63;;
68976;SDS011;56029;52.568;13.588;2023-05-10T00:27:26;11.13;;;6.70;;
68976;SDS011;56029;52.568;13.588;2023-05-10T00:29:52;12.27;;;6.90;;
68976;SDS011;56029;52.568;13.588;2023-05-10T00:32:17;12.20;;;7.20;;
68976;SDS011;56029;52.568;13.588;2023-05-10T00:34:43;10.98;;;6.85;;
68976;SDS011;56029;52.568;13.588;2023-05-10T00:37:08;12.17;;;6.80;;
68976;SDS011;56029;52.568;13.588;2023-05-10T00:39:34;12.50;;;7.10;;
68976;SDS011;56029;52.568;13.588;2023-05-10T00:41:59;11.75;;;6.85;;
68976;SDS011;56029;52.568;13.588;2023-05-10T00:44:25;11.33;;;7.10;;
68976;SDS011;56029;52.568;13.588;2023-05-10T00:46:51;11.05;;;7.20;;
68976;SDS011;56029;52.568;13.588;2023-05-10T00:49:17;10.93;;;6.95;;
68976;SDS011;56029;52.568;13.588;2023-05-10T00:51:44;11.27;;;6.80;;
68976;SDS011;56029;52.568;13.588;2023-05-10T00:54:13;12.23;;;7.25;;
68976;SDS011;56029;52.568;13.588;2023-05-10T00:56:40;13.77;;;7.50;;
68976;SDS011;56029;52.568;13.588;2023-05-10T00:59:07;12.77;;;7.07;;
68976;SDS011;56029;52.568;13.588;2023-05-10T01:01:33;12.45;;;7.22;;
68976;SDS011;56029;52.568;13.588;2023-05-10T01:04:00;12.10;;;6.83;;
68976;SDS011;56029;52.568;13.588;2023-05-10T01:06:26;12.60;;;7.53;;
68976;SDS011;56029;52.568;13.588;2023-05-10T01:08:51;14.40;;;7.30;;
68976;SDS011;56029;52.568;13.588;2023-05-10T01:11:17;10.93;;;7.00;;
68976;SDS011;56029;52.568;13.588;2023-05-10T01:13:43;13.68;;;7.28;;
68976;SDS011;56029;52.568;13.588;2023-05-10T01:16:17;13.25;;;7.30;;
68976;SDS011;56029;52.568;13.588;2023-05-10T01:18:42;12.17;;;7.30;;
68976;SDS011;56029;52.568;13.588;2023-05-10T01:21:14;12.75;;;7.30;;
68976;SDS011;56029;52.568;13.588;2023-05-10T01:26:52;11.45;;;7.32;;
68976;SDS011;56029;52.568;13.588;2023-05-10T01:29:41;14.77;;;7.47;;
68976;SDS011;56029;52.568;13.588;2023-05-10T01:32:27;12.85;;;7.10;;
68976;SDS011;56029;52.568;13.588;2023-05-10T01:42:56;12.37;;;7.10;;
68976;SDS011;56029;52.568;13.588;2023-05-10T01:45:27;14.05;;;7.20;;
68976;SDS011;56029;52.568;13.588;2023-05-10T01:48:08;16.45;;;7.20;;
68976;SDS011;56029;52.568;13.588;2023-05-10T01:50:36;12.50;;;7.40;;
68976;SDS011;56029;52.568;13.588;2023-05-10T01:53:05;11.70;;;7.00;;
68976;SDS011;56029;52.568;13.588;2023-05-10T01:55:33;11.73;;;7.27;;
68976;SDS011;56029;52.568;13.588;2023-05-10T01:58:05;11.00;;;6.88;;
68976;SDS011;56029;52.568;13.588;2023-05-10T02:00:34;12.57;;;6.53;;
68976;SDS011;56029;52.568;13.588;2023-05-10T02:03:01;12.20;;;7.30;;
68976;SDS011;56029;52.568;13.588;2023-05-10T02:05:30;11.18;;;6.93;;
68976;SDS011;56029;52.568;13.588;2023-05-10T02:07:57;13.03;;;7.07;;
68976;SDS011;56029;52.568;13.588;2023-05-10T02:10:25;11.07;;;7.05;;
68976;SDS011;56029;52.568;13.588;2023-05-10T02:12:53;12.18;;;6.82;;
68976;SDS011;56029;52.568;13.588;2023-05-10T02:15:20;12.57;;;7.20;;
68976;SDS011;56029;52.568;13.588;2023-05-10T02:17:48;11.60;;;6.90;;
68976;SDS011;56029;52.568;13.588;2023-05-10T02:20:15;10.90;;;6.73;;
68976;SDS011;56029;52.568;13.588;2023-05-10T02:22:41;11.50;;;6.88;;
68976;SDS011;56029;52.568;13.588;2023-05-10T02:25:08;11.32;;;6.93;;
68976;SDS011;56029;52.568;13.588;2023-05-10T02:27:35;12.27;;;6.78;;
68976;SDS011;56029;52.568;13.588;2023-05-10T02:30:02;11.65;;;6.82;;
68976;SDS011;56029;52.568;13.588;2023-05-10T02:32:30;12.17;;;6.80;;
68976;SDS011;56029;52.568;13.588;2023-05-10T02:34:56;14.48;;;6.65;;
68976;SDS011;56029;52.568;13.588;2023-05-10T02:37:22;11.63;;;6.68;;
68976;SDS011;56029;52.568;13.588;2023-05-10T02:39:50;10.30;;;6.60;;
68976;SDS011;56029;52.568;13.588;2023-05-10T02:42:18;10.73;;;6.17;;
68976;SDS011;56029;52.568;13.588;2023-05-10T02:44:48;12.52;;;6.78;;
68976;SDS011;56029;52.568;13.588;2023-05-10T02:47:15;13.05;;;6.90;;
68976;SDS011;56029;52.568;13.588;2023-05-10T02:49:41;11.98;;;6.38;;
68976;SDS011;56029;52.568;13.588;2023-05-10T02:52:07;10.80;;;6.30;;
68976;SDS011;56029;52.568;13.588;2023-05-10T02:54:37;13.48;;;6.63;;
68976;SDS011;56029;52.568;13.588;2023-05-10T02:57:07;11.43;;;6.93;;
68976;SDS011;56029;52.568;13.588;2023-05-10T02:59:40;11.55;;;6.68;;
68976;SDS011;56029;52.568;13.588;2023-05-10T03:02:08;12.13;;;6.60;;
68976;SDS011;56029;52.568;13.588;2023-05-10T03:04:34;13.43;;;6.40;;
68976;SDS011;56029;52.568;13.588;2023-05-10T03:07:00;11.05;;;6.50;;
68976;SDS011;56029;52.568;13.588;2023-05-10T03:09:26;11.83;;;6.10;;
68976;SDS011;56029;52.568;13.588;2023-05-10T03:11:56;11.05;;;6.20;;
68976;SDS011;56029;52.568;13.588;2023-05-10T03:15:07;11.18;;;6.30;;
68976;SDS011;56029;52.568;13.588;2023-05-10T03:18:01;11.67;;;7.00;;
68976;SDS011;56029;52.568;13.588;2023-05-10T03:20:38;11.23;;;6.40;;
68976;SDS011;56029;52.568;13.588;2023-05-10T03:23:07;11.57;;;7.05;;
68976;SDS011;56029;52.568;13.588;2023-05-10T03:25:39;13.00;;;6.47;;
68976;SDS011;56029;52.568;13.588;2023-05-10T03:28:06;10.60;;;6.38;;
68976;SDS011;56029;52.568;13.588;2023-05-10T03:30:32;11.60;;;6.77;;
68976;SDS011;56029;52.568;13.588;2023-05-10T03:33:03;12.48;;;6.43;;
68976;SDS011;56029;52.568;13.588;2023-05-10T03:35:30;10.88;;;6.22;;
68976;SDS011;56029;52.568;13.588;2023-05-10T03:37:56;9.87;;;6.20;;
68976;SDS011;56029;52.568;13.588;2023-05-10T03:40:22;11.52;;;6.65;;
68976;SDS011;56029;52.568;13.588;2023-05-10T03:42:48;11.73;;;6.63;;
68976;SDS011;56029;52.568;13.588;2023-05-10T03:45:13;11.05;;;6.40;;
68976;SDS011;56029;52.568;13.588;2023-05-10T03:47:39;10.73;;;6.40;;
68976;SDS011;56029;52.568;13.588;2023-05-10T03:50:05;11.17;;;6.40;;
68976;SDS011;56029;52.568;13.588;2023-05-10T03:52:30;9.32;;;6.05;;
68976;SDS011;56029;52.568;13.588;2023-05-10T03:54:57;11.27;;;6.53;;
68976;SDS011;56029;52.568;13.588;2023-05-10T03:57:22;12.00;;;6.40;;
68976;SDS011;56029;52.568;13.588;2023-05-10T03:59:48;10.40;;;6.25;;
68976;SDS011;56029;52.568;13.588;2023-05-10T04:02:13;10.70;;;6.50;;
68976;SDS011;56029;52.568;13.588;2023-05-10T04:04:39;10.20;;;6.20;;
68976;SDS011;56029;52.568;13.588;2023-05-10T04:07:04;9.50;;;5.93;;
68976;SDS011;56029;52.568;13.588;2023-05-10T04:09:30;10.20;;;6.20;;
68976;SDS011;56029;52.568;13.588;2023-05-10T04:11:55;10.47;;;6.13;;
68976;SDS011;56029;52.568;13.588;2023-05-10T04:14:21;11.35;;;6.43;;
68976;SDS011;56029;52.568;13.588;2023-05-10T04:16:47;10.60;;;6.47;;
68976;SDS011;56029;52.568;13.588;2023-05-10T04:19:12;11.45;;;6.25;;
68976;SDS011;56029;52.568;13.588;2023-05-10T04:21:38;11.20;;;6.23;;
68976;SDS011;56029;52.568;13.588;2023-05-10T04:24:03;10.77;;;6.57;;
68976;SDS011;56029;52.568;13.588;2023-05-10T04:26:29;10.73;;;5.93;;
68976;SDS011;56029;52.568;13.588;2023-05-10T04:28:55;10.57;;;6.10;;
68976;SDS011;56029;52.568;13.588;2023-05-10T04:31:20;10.33;;;6.10;;
68976;SDS011;56029;52.568;13.588;2023-05-10T04:33:46;10.75;;;5.45;;
68976;SDS011;56029;52.568;13.588;2023-05-10T04:36:12;10.23;;;5.70;;
68976;SDS011;56029;52.568;13.588;2023-05-10T04:38:37;8.63;;;5.53;;
68976;SDS011;56029;52.568;13.588;2023-05-10T04:41:07;10.90;;;5.90;;
68976;SDS011;56029;52.568;13.588;2023-05-10T04:43:33;9.83;;;5.30;;
68976;SDS011;56029;52.568;13.588;2023-05-10T04:45:59;9.50;;;5.75;;
68976;SDS011;56029;52.568;13.588;2023-05-10T04:48:24;9.23;;;5.33;;
68976;SDS011;56029;52.568;13.588;2023-05-10T04:50:50;9.82;;;5.90;;
68976;SDS011;56029;52.568;13.588;2023-05-10T04:53:15;9.53;;;5.77;;
68976;SDS011;56029;52.568;13.588;2023-05-10T04:55:41;8.93;;;5.10;;
68976;SDS011;56029;52.568;13.588;2023-05-10T04:58:07;9.73;;;5.43;;
68976;SDS011;56029;52.568;13.588;2023-05-10T05:00:33;9.48;;;5.30;;
68976;SDS011;56029;52.568;13.588;2023-05-10T05:02:59;8.97;;;5.13;;
68976;SDS011;56029;52.568;13.588;2023-05-10T05:05:25;9.35;;;5.15;;
68976;SDS011;56029;52.568;13.588;2023-05-10T05:07:50;8.37;;;5.17;;
68976;SDS011;56029;52.568;13.588;2023-05-10T05:10:16;7.78;;;4.70;;
68976;SDS011;56029;52.568;13.588;2023-05-10T05:12:42;8.50;;;5.00;;
68976;SDS011;56029;52.568;13.588;2023-05-10T05:15:07;7.93;;;4.88;;
68976;SDS011;56029;52.568;13.588;2023-05-10T05:17:35;9.73;;;5.10;;
68976;SDS011;56029;52.568;13.588;2023-05-10T05:20:00;8.40;;;4.72;;
68976;SDS011;56029;52.568;13.588;2023-05-10T05:22:26;8.67;;;4.90;;
68976;SDS011;56029;52.568;13.588;2023-05-10T05:24:54;8.95;;;5.03;;
68976;SDS011;56029;52.568;13.588;2023-05-10T05:27:20;7.90;;;4.72;;
68976;SDS011;56029;52.568;13.588;2023-05-10T05:29:49;8.65;;;4.60;;
68976;SDS011;56029;52.568;13.588;2023-05-10T05:32:16;9.25;;;4.88;;
68976;SDS011;56029;52.568;13.588;2023-05-10T05:34:43;8.83;;;4.63;;
68976;SDS011;56029;52.568;13.588;2023-05-10T05:37:12;8.50;;;5.18;;
68976;SDS011;56029;52.568;13.588;2023-05-10T05:39:39;8.18;;;4.55;;
68976;SDS011;56029;52.568;13.588;2023-05-10T05:42:05;8.77;;;5.27;;
68976;SDS011;56029;52.568;13.588;2023-05-10T05:44:30;7.75;;;4.80;;
68976;SDS011;56029;52.568;13.588;2023-05-10T05:46:56;9.50;;;5.07;;
68976;SDS011;56029;52.568;13.588;2023-05-10T05:49:21;9.07;;;5.00;;
68976;SDS011;56029;52.568;13.588;2023-05-10T05:51:47;9.30;;;5.13;;
68976;SDS011;56029;52.568;13.588;2023-05-10T05:54:14;8.15;;;4.70;;
68976;SDS011;56029;52.568;13.588;2023-05-10T05:56:40;8.07;;;4.80;;
68976;SDS011;56029;52.568;13.588;2023-05-10T05:59:05;9.03;;;4.60;;
68976;SDS011;56029;52.568;13.588;2023-05-10T06:01:31;9.52;;;4.57;;
68976;SDS011;56029;52.568;13.588;2023-05-10T06:03:56;8.10;;;4.37;;
68976;SDS011;56029;52.568;13.588;2023-05-10T06:06:22;7.95;;;4.38;;
68976;SDS011;56029;52.568;13.588;2023-05-10T06:08:47;7.23;;;4.20;;
68976;SDS011;56029;52.568;13.588;2023-05-10T06:11:13;7.20;;;4.30;;
68976;SDS011;56029;52.568;13.588;2023-05-10T06:13:38;8.20;;;4.30;;
68976;SDS011;56029;52.568;13.588;2023-05-10T06:16:04;7.35;;;3.97;;
68976;SDS011;56029;52.568;13.588;2023-05-10T06:18:30;7.38;;;3.90;;
68976;SDS011;56029;52.568;13.588;2023-05-10T06:20:56;9.23;;;4.00;;
68976;SDS011;56029;52.568;13.588;2023-05-10T06:23:21;6.80;;;3.83;;
68976;SDS011;56029;52.568;13.588;2023-05-10T06:25:47;6.93;;;4.00;;
68976;SDS011;56029;52.568;13.588;2023-05-10T06:28:13;8.00;;;3.70;;
68976;SDS011;56029;52.568;13.588;2023-05-10T06:30:38;6.77;;;3.57;;
68976;SDS011;56029;52.568;13.588;2023-05-10T06:33:04;7.07;;;3.47;;
68976;SDS011;56029;52.568;13.588;2023-05-10T06:35:30;7.20;;;3.60;;
68976;SDS011;56029;52.568;13.588;2023-05-10T06:37:57;6.63;;;3.75;;
68976;SDS011;56029;52.568;13.588;2023-05-10T06:40:22;6.80;;;3.90;;
68976;SDS011;56029;52.568;13.588;2023-05-10T06:42:48;7.93;;;3.50;;
68976;SDS011;56029;52.568;13.588;2023-05-10T06:45:14;6.67;;;3.73;;
68976;SDS011;56029;52.568;13.588;2023-05-10T06:47:40;6.20;;;3.45;;
68976;SDS011;56029;52.568;13.588;2023-05-10T06:50:07;5.57;;;3.45;;
68976;SDS011;56029;52.568;13.588;2023-05-10T06:52:33;7.87;;;3.50;;
68976;SDS011;56029;52.568;13.588;2023-05-10T06:54:59;7.50;;;3.55;;
68976;SDS011;56029;52.568;13.588;2023-05-10T06:57:25;5.97;;;3.30;;
68976;SDS011;56029;52.568;13.588;2023-05-10T06:59:51;6.70;;;3.50;;
68976;SDS011;56029;52.568;13.588;2023-05-10T07:02:17;6.47;;;3.20;;
68976;SDS011;56029;52.568;13.588;2023-05-10T07:04:42;5.68;;;3.25;;
68976;SDS011;56029;52.568;13.588;2023-05-10T07:07:08;8.27;;;3.40;;
68976;SDS011;56029;52.568;13.588;2023-05-10T07:09:34;6.03;;;3.40;;
68976;SDS011;56029;52.568;13.588;2023-05-10T07:11:59;7.10;;;3.40;;
68976;SDS011;56029;52.568;13.588;2023-05-10T07:14:25;6.00;;;3.20;;
68976;SDS011;56029;52.568;13.588;2023-05-10T07:16:50;6.82;;;3.17;;
68976;SDS011;56029;52.568;13.588;2023-05-10T07:19:16;5.77;;;3.20;;
68976;SDS011;56029;52.568;13.588;2023-05-10T07:21:41;7.27;;;3.50;;
68976;SDS011;56029;52.568;13.588;2023-05-10T07:24:08;7.45;;;3.40;;
68976;SDS011;56029;52.568;13.588;2023-05-10T07:26:34;6.93;;;3.17;;
68976;SDS011;56029;52.568;13.588;2023-05-10T07:28:59;6.80;;;3.50;;
68976;SDS011;56029;52.568;13.588;2023-05-10T07:31:25;6.07;;;3.28;;
68976;SDS011;56029;52.568;13.588;2023-05-10T07:33:51;5.03;;;3.10;;
68976;SDS011;56029;52.568;13.588;2023-05-10T07:36:16;5.93;;;3.50;;
68976;SDS011;56029;52.568;13.588;2023-05-10T07:38:42;5.90;;;3.28;;
68976;SDS011;56029;52.568;13.588;2023-05-10T07:41:07;5.97;;;3.00;;
68976;SDS011;56029;52.568;13.588;2023-05-10T07:43:33;5.43;;;3.43;;
68976;SDS011;56029;52.568;13.588;2023-05-10T07:45:58;6.38;;;3.40;;
68976;SDS011;56029;52.568;13.588;2023-05-10T07:48:25;4.87;;;3.10;;
68976;SDS011;56029;52.568;13.588;2023-05-10T07:50:51;5.88;;;3.40;;
68976;SDS011;56029;52.568;13.588;2023-05-10T07:53:16;7.15;;;3.70;;
68976;SDS011;56029;52.568;13.588;2023-05-10T07:55:43;6.17;;;3.20;;
68976;SDS011;56029;52.568;13.588;2023-05-10T07:58:09;6.88;;;3.42;;
68976;SDS011;56029;52.568;13.588;2023-05-10T08:00:34;6.27;;;3.53;;
68976;SDS011;56029;52.568;13.588;2023-05-10T08:03:00;7.25;;;3.40;;
68976;SDS011;56029;52.568;13.588;2023-05-10T08:05:26;7.57;;;3.20;;
68976;SDS011;56029;52.568;13.588;2023-05-10T08:07:51;7.20;;;3.40;;
68976;SDS011;56029;52.568;13.588;2023-05-10T08:10:17;7.73;;;3.37;;
68976;SDS011;56029;52.568;13.588;2023-05-10T08:12:42;6.17;;;3.50;;
68976;SDS011;56029;52.568;13.588;2023-05-10T08:15:08;6.72;;;3.35;;
68976;SDS011;56029;52.568;13.588;2023-05-10T08:17:34;6.80;;;3.30;;
68976;SDS011;56029;52.568;13.588;2023-05-10T08:20:00;7.68;;;3.30;;
68976;SDS011;56029;52.568;13.588;2023-05-10T08:22:25;5.30;;;3.30;;
68976;SDS011;56029;52.568;13.588;2023-05-10T08:24:51;6.47;;;3.67;;
68976;SDS011;56029;52.568;13.588;2023-05-10T08:27:16;6.95;;;3.30;;
68976;SDS011;56029;52.568;13.588;2023-05-10T08:29:42;5.30;;;3.20;;
68976;SDS011;56029;52.568;13.588;2023-05-10T08:32:07;5.80;;;3.50;;
68976;SDS011;56029;52.568;13.588;2023-05-10T08:34:33;6.73;;;3.27;;
68976;SDS011;56029;52.568;13.588;2023-05-10T08:36:58;8.67;;;3.37;;
68976;SDS011;56029;52.568;13.588;2023-05-10T08:39:24;6.87;;;3.50;;
68976;SDS011;56029;52.568;13.588;2023-05-10T08:41:51;6.03;;;3.17;;
68976;SDS011;56029;52.568;13.588;2023-05-10T08:44:19;5.95;;;3.60;;
68976;SDS011;56029;52.568;13.588;2023-05-10T08:46:45;7.27;;;3.43;;
68976;SDS011;56029;52.568;13.588;2023-05-10T08:49:16;6.20;;;3.25;;
68976;SDS011;56029;52.568;13.588;2023-05-10T08:51:47;6.97;;;3.50;;
68976;SDS011;56029;52.568;13.588;2023-05-10T08:54:16;6.28;;;3.30;;
68976;SDS011;56029;52.568;13.588;2023-05-10T08:56:42;5.25;;;3.40;;
68976;SDS011;56029;52.568;13.588;2023-05-10T08:59:08;6.20;;;3.50;;
68976;SDS011;56029;52.568;13.588;2023-05-10T09:01:35;5.90;;;3.50;;
68976;SDS011;56029;52.568;13.588;2023-05-10T09:04:01;6.03;;;3.47;;
68976;SDS011;56029;52.568;13.588;2023-05-10T09:06:28;6.35;;;3.47;;
68976;SDS011;56029;52.568;13.588;2023-05-10T09:08:53;5.38;;;3.53;;
68976;SDS011;56029;52.568;13.588;2023-05-10T09:11:20;6.13;;;3.27;;
68976;SDS011;56029;52.568;13.588;2023-05-10T09:13:47;6.20;;;3.20;;
68976;SDS011;56029;52.568;13.588;2023-05-10T09:16:14;6.47;;;3.65;;
68976;SDS011;56029;52.568;13.588;2023-05-10T09:18:39;6.43;;;3.40;;
68976;SDS011;56029;52.568;13.588;2023-05-10T09:21:05;5.78;;;3.38;;
68976;SDS011;56029;52.568;13.588;2023-05-10T09:23:30;6.40;;;3.33;;
68976;SDS011;56029;52.568;13.588;2023-05-10T09:26:07;7.22;;;3.80;;
68976;SDS011;56029;52.568;13.588;2023-05-10T09:28:33;8.50;;;3.63;;
68976;SDS011;56029;52.568;13.588;2023-05-10T09:30:59;5.80;;;3.50;;
68976;SDS011;56029;52.568;13.588;2023-05-10T09:33:25;5.35;;;3.50;;
68976;SDS011;56029;52.568;13.588;2023-05-10T09:35:51;7.57;;;3.60;;
68976;SDS011;56029;52.568;13.588;2023-05-10T09:38:17;7.72;;;4.00;;
68976;SDS011;56029;52.568;13.588;2023-05-10T09:40:42;5.68;;;3.38;;
68976;SDS011;56029;52.568;13.588;2023-05-10T09:43:19;6.50;;;3.87;;
68976;SDS011;56029;52.568;13.588;2023-05-10T09:45:45;7.07;;;3.83;;
68976;SDS011;56029;52.568;13.588;2023-05-10T09:48:14;8.38;;;3.70;;
68976;SDS011;56029;52.568;13.588;2023-05-10T09:50:40;7.78;;;3.70;;
68976;SDS011;56029;52.568;13.588;2023-05-10T09:53:06;5.95;;;3.65;;
68976;SDS011;56029;52.568;13.588;2023-05-10T09:58:04;5.80;;;3.63;;
68976;SDS011;56029;52.568;13.588;2023-05-10T10:00:50;7.25;;;3.70;;
68976;SDS011;56029;52.568;13.588;2023-05-10T10:03:19;7.13;;;3.80;;
68976;SDS011;56029;52.568;13.588;2023-05-10T10:05:47;7.20;;;3.80;;
68976;SDS011;56029;52.568;13.588;2023-05-10T10:08:13;6.40;;;4.10;;
68976;SDS011;56029;52.568;13.588;2023-05-10T10:10:40;6.65;;;3.90;;
68976;SDS011;56029;52.568;13.588;2023-05-10T10:13:06;6.75;;;3.60;;
68976;SDS011;56029;52.568;13.588;2023-05-10T10:15:33;5.45;;;3.33;;
68976;SDS011;56029;52.568;13.588;2023-05-10T10:17:59;6.70;;;3.30;;
68976;SDS011;56029;52.568;13.588;2023-05-10T10:20:26;5.88;;;3.50;;
68976;SDS011;56029;52.568;13.588;2023-05-10T10:22:52;5.95;;;3.70;;
68976;SDS011;56029;52.568;13.588;2023-05-10T10:25:18;6.95;;;3.80;;
68976;SDS011;56029;52.568;13.588;2023-05-10T10:35:52;8.00;;;3.53;;
68976;SDS011;56029;52.568;13.588;2023-05-10T10:38:18;5.38;;;3.60;;
68976;SDS011;56029;52.568;13.588;2023-05-10T10:40:44;6.53;;;3.50;;
68976;SDS011;56029;52.568;13.588;2023-05-10T10:43:22;6.50;;;3.70;;
68976;SDS011;56029;52.568;13.588;2023-05-10T10:48:49;7.13;;;3.35;;
68976;SDS011;56029;52.568;13.588;2023-05-10T10:51:36;5.45;;;3.38;;
68976;SDS011;56029;52.568;13.588;2023-05-10T10:54:09;5.13;;;3.42;;
68976;SDS011;56029;52.568;13.588;2023-05-10T10:56:35;6.57;;;3.30;;
68976;SDS011;56029;52.568;13.588;2023-05-10T10:59:01;6.25;;;3.50;;
68976;SDS011;56029;52.568;13.588;2023-05-10T11:01:27;6.17;;;3.30;;
68976;SDS011;56029;52.568;13.588;2023-05-10T11:06:31;7.70;;;3.60;;
68976;SDS011;56029;52.568;13.588;2023-05-10T11:08:57;5.60;;;3.45;;
68976;SDS011;56029;52.568;13.588;2023-05-10T11:11:23;4.75;;;3.22;;
68976;SDS011;56029;52.568;13.588;2023-05-10T11:13:48;4.90;;;3.40;;
68976;SDS011;56029;52.568;13.588;2023-05-10T11:16:19;6.85;;;3.60;;
68976;SDS011;56029;52.568;13.588;2023-05-10T11:21:27;6.72;;;3.60;;
68976;SDS011;56029;52.568;13.588;2023-05-10T11:23:54;6.78;;;3.55;;
68976;SDS011;56029;52.568;13.588;2023-05-10T11:26:22;5.50;;;3.33;;
68976;SDS011;56029;52.568;13.588;2023-05-10T11:28:55;5.80;;;3.45;;
68976;SDS011;56029;52.568;13.588;2023-05-10T11:31:21;6.27;;;3.50;;
68976;SDS011;56029;52.568;13.588;2023-05-10T11:33:48;6.40;;;3.72;;
68976;SDS011;56029;52.568;13.588;2023-05-10T11:36:16;5.65;;;3.67;;
68976;SDS011;56029;52.568;13.588;2023-05-10T11:38:43;6.57;;;3.53;;
68976;SDS011;56029;52.568;13.588;2023-05-10T11:41:09;5.60;;;3.53;;
68976;SDS011;56029;52.568;13.588;2023-05-10T11:43:36;6.28;;;3.60;;
68976;SDS011;56029;52.568;13.588;2023-05-10T11:46:04;6.03;;;3.38;;
68976;SDS011;56029;52.568;13.588;2023-05-10T11:48:33;8.27;;;3.30;;
68976;SDS011;56029;52.568;13.588;2023-05-10T11:51:00;6.20;;;3.40;;
68976;SDS011;56029;52.568;13.588;2023-05-10T11:53:26;6.45;;;3.47;;
68976;SDS011;56029;52.568;13.588;2023-05-10T11:55:53;6.25;;;3.42;;
68976;SDS011;56029;52.568;13.588;2023-05-10T11:58:18;8.70;;;3.30;;
68976;SDS011;56029;52.568;13.588;2023-05-10T12:00:44;5.00;;;3.20;;
68976;SDS011;56029;52.568;13.588;2023-05-10T12:03:10;6.88;;;3.30;;
68976;SDS011;56029;52.568;13.588;2023-05-10T12:05:36;6.07;;;3.50;;
68976;SDS011;56029;52.568;13.588;2023-05-10T12:08:12;7.38;;;3.60;;
68976;SDS011;56029;52.568;13.588;2023-05-10T12:10:39;5.88;;;3.60;;
68976;SDS011;56029;52.568;13.588;2023-05-10T12:13:04;6.53;;;3.30;;
68976;SDS011;56029;52.568;13.588;2023-05-10T12:18:09;6.35;;;3.42;;
68976;SDS011;56029;52.568;13.588;2023-05-10T12:20:36;6.93;;;3.23;;
68976;SDS011;56029;52.568;13.588;2023-05-10T12:23:02;7.30;;;3.20;;
68976;SDS011;56029;52.568;13.588;2023-05-10T12:25:32;5.47;;;3.30;;
68976;SDS011;56029;52.568;13.588;2023-05-10T12:28:00;5.07;;;3.03;;
68976;SDS011;56029;52.568;13.588;2023-05-10T12:30:29;6.50;;;3.92;;
68976;SDS011;56029;52.568;13.588;2023-05-10T12:33:02;7.33;;;3.50;;
68976;SDS011;56029;52.568;13.588;2023-05-10T12:35:43;6.18;;;3.45;;
68976;SDS011;56029;52.568;13.588;2023-05-10T12:38:28;6.57;;;3.22;;
68976;SDS011;56029;52.568;13.588;2023-05-10T12:41:03;5.57;;;3.15;;
68976;SDS011;56029;52.568;13.588;2023-05-10T12:43:30;7.10;;;3.33;;
68976;SDS011;56029;52.568;13.588;2023-05-10T12:45:58;5.17;;;3.07;;
68976;SDS011;56029;52.568;13.588;2023-05-10T12:48:23;4.72;;;3.10;;
68976;SDS011;56029;52.568;13.588;2023-05-10T12:50:49;6.80;;;3.25;;
68976;SDS011;56029;52.568;13.588;2023-05-10T12:53:15;4.80;;;3.13;;
68976;SDS011;56029;52.568;13.588;2023-05-10T12:55:41;6.20;;;3.40;;
68976;SDS011;56029;52.568;13.588;2023-05-10T12:58:07;6.72;;;3.17;;
68976;SDS011;56029;52.568;13.588;2023-05-10T13:00:33;5.23;;;3.50;;
68976;SDS011;56029;52.568;13.588;2023-05-10T13:02:58;4.97;;;3.30;;
68976;SDS011;56029;52.568;13.588;2023-05-10T13:05:24;5.87;;;3.00;;
68976;SDS011;56029;52.568;13.588;2023-05-10T13:07:49;5.33;;;3.07;;
68976;SDS011;56029;52.568;13.588;2023-05-10T13:10:15;4.95;;;3.00;;
68976;SDS011;56029;52.568;13.588;2023-05-10T13:12:41;4.70;;;3.00;;
68976;SDS011;56029;52.568;13.588;2023-05-10T13:15:07;5.13;;;3.10;;
68976;SDS011;56029;52.568;13.588;2023-05-10T13:17:32;5.45;;;3.03;;
68976;SDS011;56029;52.568;13.588;2023-05-10T13:19:58;5.50;;;2.90;;
68976;SDS011;56029;52.568;13.588;2023-05-10T13:22:24;6.27;;;3.30;;
68976;SDS011;56029;52.568;13.588;2023-05-10T13:24:49;7.17;;;3.90;;
68976;SDS011;56029;52.568;13.588;2023-05-10T13:27:15;5.05;;;3.00;;
68976;SDS011;56029;52.568;13.588;2023-05-10T13:29:43;4.93;;;3.05;;
68976;SDS011;56029;52.568;13.588;2023-05-10T13:32:08;6.00;;;3.20;;
68976;SDS011;56029;52.568;13.588;2023-05-10T13:34:34;5.90;;;2.90;;
68976;SDS011;56029;52.568;13.588;2023-05-10T13:37:00;5.78;;;2.83;;
68976;SDS011;56029;52.568;13.588;2023-05-10T13:39:26;3.60;;;2.50;;
68976;SDS011;56029;52.568;13.588;2023-05-10T13:41:52;5.57;;;2.80;;
68976;SDS011;56029;52.568;13.588;2023-05-10T13:44:17;8.68;;;3.10;;
68976;SDS011;56029;52.568;13.588;2023-05-10T13:46:43;6.37;;;2.90;;
68976;SDS011;56029;52.568;13.588;2023-05-10T13:49:09;4.30;;;3.07;;
68976;SDS011;56029;52.568;13.588;2023-05-10T13:51:34;7.78;;;2.92;;
68976;SDS011;56029;52.568;13.588;2023-05-10T13:54:04;5.20;;;3.00;;
68976;SDS011;56029;52.568;13.588;2023-05-10T13:56:29;6.30;;;2.80;;
68976;SDS011;56029;52.568;13.588;2023-05-10T13:58:56;4.30;;;2.78;;
68976;SDS011;56029;52.568;13.588;2023-05-10T14:01:22;4.57;;;2.80;;
68976;SDS011;56029;52.568;13.588;2023-05-10T14:03:48;3.80;;;2.58;;
68976;SDS011;56029;52.568;13.588;2023-05-10T14:06:14;5.67;;;2.53;;
68976;SDS011;56029;52.568;13.588;2023-05-10T14:08:40;4.65;;;2.80;;
68976;SDS011;56029;52.568;13.588;2023-05-10T14:11:05;3.93;;;2.50;;
68976;SDS011;56029;52.568;13.588;2023-05-10T14:13:31;3.93;;;2.63;;
68976;SDS011;56029;52.568;13.588;2023-05-10T14:15:56;5.67;;;2.80;;
68976;SDS011;56029;52.568;13.588;2023-05-10T14:18:22;4.07;;;2.63;;
68976;SDS011;56029;52.568;13.588;2023-05-10T14:20:48;4.15;;;2.33;;
68976;SDS011;56029;52.568;13.588;2023-05-10T14:23:14;4.63;;;2.65;;
68976;SDS011;56029;52.568;13.588;2023-05-10T14:25:40;6.13;;;2.80;;
68976;SDS011;56029;52.568;13.588;2023-05-10T14:28:06;5.05;;;2.50;;
68976;SDS011;56029;52.568;13.588;2023-05-10T14:30:31;5.57;;;2.70;;
68976;SDS011;56029;52.568;13.588;2023-05-10T14:32:59;4.07;;;2.50;;
68976;SDS011;56029;52.568;13.588;2023-05-10T14:35:28;4.40;;;3.00;;
68976;SDS011;56029;52.568;13.588;2023-05-10T14:37:56;4.20;;;2.80;;
68976;SDS011;56029;52.568;13.588;2023-05-10T14:40:22;4.03;;;2.80;;
68976;SDS011;56029;52.568;13.588;2023-05-10T14:42:48;5.80;;;2.80;;
68976;SDS011;56029;52.568;13.588;2023-05-10T14:45:13;5.37;;;2.77;;
68976;SDS011;56029;52.568;13.588;2023-05-10T14:47:39;7.78;;;2.90;;
68976;SDS011;56029;52.568;13.588;2023-05-10T14:50:05;5.77;;;2.93;;
68976;SDS011;56029;52.568;13.588;2023-05-10T14:52:31;5.05;;;3.05;;
68976;SDS011;56029;52.568;13.588;2023-05-10T14:54:56;4.77;;;3.00;;
68976;SDS011;56029;52.568;13.588;2023-05-10T14:57:24;6.05;;;2.90;;
68976;SDS011;56029;52.568;13.588;2023-05-10T14:59:49;6.27;;;3.10;;
68976;SDS011;56029;52.568;13.588;2023-05-10T15:02:15;5.22;;;3.17;;